Terminal Aerodrome Forecast
Issued by NWS

Home | Current Version | Previous Version | Text Only | Print | Product List | Glossary On
Versions: 1 2 3 4 5 6 7 8 9 10 11 12 13 14 15 16 17 18 19 20 21 22 23 24 25 26 27 28 29 30 31 32
670
FTUS46 KLOX 271121
TAFLAX
TAF
KLAX 271121Z 2712/2818 VRB03KT P6SM FEW025 BKN035
     FM271700 24007KT P6SM SCT040
     FM272100 26014KT P6SM FEW040
     FM280300 24008KT P6SM SKC
     FM280600 24006KT P6SM OVC015
     FM281700 24008KT P6SM SCT015=

USA.gov is the U.S. government's official web portal to all federal, state and local government web resources and services.